sensor_id;sensor_type;location;lat;lon;timestamp;P1;durP1;ratioP1;P2;durP2;ratioP2
23628;SDS011;11991;57.150;-2.134;2023-04-08T00:01:25;6.57;;;4.95;;
23628;SDS011;11991;57.150;-2.134;2023-04-08T00:03:52;5.22;;;3.85;;
23628;SDS011;11991;57.150;-2.134;2023-04-08T00:06:20;9.27;;;6.57;;
23628;SDS011;11991;57.150;-2.134;2023-04-08T00:08:47;9.20;;;6.07;;
23628;SDS011;11991;57.150;-2.134;2023-04-08T00:11:15;11.38;;;6.95;;
23628;SDS011;11991;57.150;-2.134;2023-04-08T00:13:42;6.35;;;4.85;;
23628;SDS011;11991;57.150;-2.134;2023-04-08T00:16:09;7.43;;;5.43;;
23628;SDS011;11991;57.150;-2.134;2023-04-08T00:18:36;8.40;;;5.97;;
23628;SDS011;11991;57.150;-2.134;2023-04-08T00:21:03;15.38;;;9.45;;
23628;SDS011;11991;57.150;-2.134;2023-04-08T00:23:31;13.00;;;7.60;;
23628;SDS011;11991;57.150;-2.134;2023-04-08T00:25:58;11.77;;;6.95;;
23628;SDS011;11991;57.150;-2.134;2023-04-08T00:28:25;8.15;;;5.38;;
23628;SDS011;11991;57.150;-2.134;2023-04-08T00:30:52;10.10;;;5.80;;
23628;SDS011;11991;57.150;-2.134;2023-04-08T00:33:19;8.48;;;6.30;;
23628;SDS011;11991;57.150;-2.134;2023-04-08T00:35:47;11.18;;;6.38;;
23628;SDS011;11991;57.150;-2.134;2023-04-08T00:38:15;12.23;;;7.72;;
23628;SDS011;11991;57.150;-2.134;2023-04-08T00:40:42;9.90;;;5.80;;
23628;SDS011;11991;57.150;-2.134;2023-04-08T00:43:10;8.38;;;5.20;;
23628;SDS011;11991;57.150;-2.134;2023-04-08T00:45:37;7.90;;;4.93;;
23628;SDS011;11991;57.150;-2.134;2023-04-08T00:48:04;5.60;;;4.70;;
23628;SDS011;11991;57.150;-2.134;2023-04-08T00:50:32;6.80;;;5.10;;
23628;SDS011;11991;57.150;-2.134;2023-04-08T00:52:59;8.25;;;5.50;;
23628;SDS011;11991;57.150;-2.134;2023-04-08T00:55:26;12.35;;;7.05;;
23628;SDS011;11991;57.150;-2.134;2023-04-08T00:57:54;7.95;;;5.05;;
23628;SDS011;11991;57.150;-2.134;2023-04-08T01:00:21;10.93;;;6.93;;
23628;SDS011;11991;57.150;-2.134;2023-04-08T01:02:55;4.28;;;3.58;;
23628;SDS011;11991;57.150;-2.134;2023-04-08T01:05:38;6.60;;;4.43;;
23628;SDS011;11991;57.150;-2.134;2023-04-08T01:08:21;12.35;;;7.10;;
23628;SDS011;11991;57.150;-2.134;2023-04-08T01:10:50;7.60;;;4.00;;
23628;SDS011;11991;57.150;-2.134;2023-04-08T01:13:21;11.02;;;6.47;;
23628;SDS011;11991;57.150;-2.134;2023-04-08T01:15:52;7.93;;;5.00;;
23628;SDS011;11991;57.150;-2.134;2023-04-08T01:18:21;7.72;;;5.00;;
23628;SDS011;11991;57.150;-2.134;2023-04-08T01:20:49;10.80;;;6.07;;
23628;SDS011;11991;57.150;-2.134;2023-04-08T01:23:31;7.00;;;5.07;;
23628;SDS011;11991;57.150;-2.134;2023-04-08T01:26:03;11.43;;;7.05;;
23628;SDS011;11991;57.150;-2.134;2023-04-08T01:28:31;9.73;;;5.10;;
23628;SDS011;11991;57.150;-2.134;2023-04-08T01:31:00;10.55;;;6.60;;
23628;SDS011;11991;57.150;-2.134;2023-04-08T01:33:28;6.35;;;4.30;;
23628;SDS011;11991;57.150;-2.134;2023-04-08T01:35:57;8.85;;;6.85;;
23628;SDS011;11991;57.150;-2.134;2023-04-08T01:38:26;6.80;;;5.57;;
23628;SDS011;11991;57.150;-2.134;2023-04-08T01:40:55;7.93;;;5.13;;
23628;SDS011;11991;57.150;-2.134;2023-04-08T01:43:23;10.27;;;5.18;;
23628;SDS011;11991;57.150;-2.134;2023-04-08T01:45:52;7.18;;;5.25;;
23628;SDS011;11991;57.150;-2.134;2023-04-08T01:48:24;13.32;;;8.23;;
23628;SDS011;11991;57.150;-2.134;2023-04-08T01:50:52;9.05;;;6.60;;
23628;SDS011;11991;57.150;-2.134;2023-04-08T01:53:21;10.43;;;5.90;;
23628;SDS011;11991;57.150;-2.134;2023-04-08T01:55:51;13.18;;;7.45;;
23628;SDS011;11991;57.150;-2.134;2023-04-08T01:58:22;9.70;;;5.32;;
23628;SDS011;11991;57.150;-2.134;2023-04-08T02:00:53;5.38;;;4.40;;
23628;SDS011;11991;57.150;-2.134;2023-04-08T02:03:23;7.75;;;5.80;;
23628;SDS011;11991;57.150;-2.134;2023-04-08T02:05:53;4.72;;;3.40;;
23628;SDS011;11991;57.150;-2.134;2023-04-08T02:08:20;4.28;;;3.55;;
23628;SDS011;11991;57.150;-2.134;2023-04-08T02:10:47;6.85;;;4.63;;
23628;SDS011;11991;57.150;-2.134;2023-04-08T02:13:14;12.20;;;6.00;;
23628;SDS011;11991;57.150;-2.134;2023-04-08T02:15:45;6.53;;;4.72;;
23628;SDS011;11991;57.150;-2.134;2023-04-08T02:18:21;5.57;;;3.95;;
23628;SDS011;11991;57.150;-2.134;2023-04-08T02:20:58;10.82;;;6.85;;
23628;SDS011;11991;57.150;-2.134;2023-04-08T02:23:37;7.80;;;4.50;;
23628;SDS011;11991;57.150;-2.134;2023-04-08T02:26:07;10.02;;;6.55;;
23628;SDS011;11991;57.150;-2.134;2023-04-08T02:28:39;11.88;;;6.60;;
23628;SDS011;11991;57.150;-2.134;2023-04-08T02:31:09;11.27;;;7.03;;
23628;SDS011;11991;57.150;-2.134;2023-04-08T02:33:43;11.32;;;7.32;;
23628;SDS011;11991;57.150;-2.134;2023-04-08T02:36:12;9.27;;;6.00;;
23628;SDS011;11991;57.150;-2.134;2023-04-08T02:38:41;7.45;;;5.28;;
23628;SDS011;11991;57.150;-2.134;2023-04-08T02:41:08;7.00;;;5.68;;
23628;SDS011;11991;57.150;-2.134;2023-04-08T02:43:35;7.88;;;5.22;;
23628;SDS011;11991;57.150;-2.134;2023-04-08T02:46:04;11.63;;;7.85;;
23628;SDS011;11991;57.150;-2.134;2023-04-08T02:48:34;11.18;;;7.47;;
23628;SDS011;11991;57.150;-2.134;2023-04-08T02:51:02;7.20;;;5.03;;
23628;SDS011;11991;57.150;-2.134;2023-04-08T02:53:29;13.30;;;7.97;;
23628;SDS011;11991;57.150;-2.134;2023-04-08T02:55:56;8.60;;;5.38;;
23628;SDS011;11991;57.150;-2.134;2023-04-08T02:58:23;10.93;;;6.72;;
23628;SDS011;11991;57.150;-2.134;2023-04-08T03:00:51;7.97;;;5.13;;
23628;SDS011;11991;57.150;-2.134;2023-04-08T03:03:18;18.90;;;9.57;;
23628;SDS011;11991;57.150;-2.134;2023-04-08T03:05:45;8.43;;;5.38;;
23628;SDS011;11991;57.150;-2.134;2023-04-08T03:08:12;9.57;;;5.40;;
23628;SDS011;11991;57.150;-2.134;2023-04-08T03:10:39;10.48;;;6.13;;
23628;SDS011;11991;57.150;-2.134;2023-04-08T03:13:07;5.13;;;3.97;;
23628;SDS011;11991;57.150;-2.134;2023-04-08T03:15:34;10.07;;;6.43;;
23628;SDS011;11991;57.150;-2.134;2023-04-08T03:18:01;6.38;;;4.80;;
23628;SDS011;11991;57.150;-2.134;2023-04-08T03:20:30;8.63;;;6.13;;
23628;SDS011;11991;57.150;-2.134;2023-04-08T03:22:57;10.43;;;5.57;;
23628;SDS011;11991;57.150;-2.134;2023-04-08T03:25:24;12.73;;;6.22;;
23628;SDS011;11991;57.150;-2.134;2023-04-08T03:27:51;7.05;;;5.05;;
23628;SDS011;11991;57.150;-2.134;2023-04-08T03:30:19;10.77;;;5.75;;
23628;SDS011;11991;57.150;-2.134;2023-04-08T03:32:46;10.82;;;7.25;;
23628;SDS011;11991;57.150;-2.134;2023-04-08T03:35:13;9.05;;;5.35;;
23628;SDS011;11991;57.150;-2.134;2023-04-08T03:37:40;11.63;;;7.05;;
23628;SDS011;11991;57.150;-2.134;2023-04-08T03:40:08;9.15;;;5.68;;
23628;SDS011;11991;57.150;-2.134;2023-04-08T03:42:36;9.98;;;6.05;;
23628;SDS011;11991;57.150;-2.134;2023-04-08T03:45:03;6.25;;;4.38;;
23628;SDS011;11991;57.150;-2.134;2023-04-08T03:47:31;5.28;;;3.95;;
23628;SDS011;11991;57.150;-2.134;2023-04-08T03:49:59;9.00;;;5.05;;
23628;SDS011;11991;57.150;-2.134;2023-04-08T03:52:26;8.07;;;4.63;;
23628;SDS011;11991;57.150;-2.134;2023-04-08T03:54:53;4.97;;;3.67;;
23628;SDS011;11991;57.150;-2.134;2023-04-08T03:57:20;7.07;;;4.05;;
23628;SDS011;11991;57.150;-2.134;2023-04-08T03:59:47;5.80;;;3.47;;
23628;SDS011;11991;57.150;-2.134;2023-04-08T04:02:15;7.22;;;4.05;;
23628;SDS011;11991;57.150;-2.134;2023-04-08T04:04:42;6.70;;;3.55;;
23628;SDS011;11991;57.150;-2.134;2023-04-08T04:07:09;5.80;;;3.15;;
23628;SDS011;11991;57.150;-2.134;2023-04-08T04:09:36;6.88;;;3.13;;
23628;SDS011;11991;57.150;-2.134;2023-04-08T04:12:04;6.82;;;3.90;;
23628;SDS011;11991;57.150;-2.134;2023-04-08T04:14:31;10.93;;;4.40;;
23628;SDS011;11991;57.150;-2.134;2023-04-08T04:16:58;3.00;;;2.42;;
23628;SDS011;11991;57.150;-2.134;2023-04-08T04:19:28;8.43;;;3.50;;
23628;SDS011;11991;57.150;-2.134;2023-04-08T04:21:56;7.63;;;4.15;;
23628;SDS011;11991;57.150;-2.134;2023-04-08T04:24:23;6.93;;;2.20;;
23628;SDS011;11991;57.150;-2.134;2023-04-08T04:26:51;7.28;;;3.75;;
23628;SDS011;11991;57.150;-2.134;2023-04-08T04:29:18;6.95;;;3.53;;
23628;SDS011;11991;57.150;-2.134;2023-04-08T04:31:45;3.50;;;2.33;;
23628;SDS011;11991;57.150;-2.134;2023-04-08T04:34:12;5.78;;;2.97;;
23628;SDS011;11991;57.150;-2.134;2023-04-08T04:36:39;7.55;;;3.30;;
23628;SDS011;11991;57.150;-2.134;2023-04-08T04:39:06;9.82;;;3.28;;
23628;SDS011;11991;57.150;-2.134;2023-04-08T04:41:34;6.45;;;2.97;;
23628;SDS011;11991;57.150;-2.134;2023-04-08T04:44:05;8.68;;;3.40;;
23628;SDS011;11991;57.150;-2.134;2023-04-08T04:46:33;6.18;;;2.78;;
23628;SDS011;11991;57.150;-2.134;2023-04-08T04:49:00;6.88;;;3.20;;
23628;SDS011;11991;57.150;-2.134;2023-04-08T04:51:29;4.57;;;2.80;;
23628;SDS011;11991;57.150;-2.134;2023-04-08T04:53:58;5.93;;;3.65;;
23628;SDS011;11991;57.150;-2.134;2023-04-08T04:56:25;5.82;;;3.35;;
23628;SDS011;11991;57.150;-2.134;2023-04-08T04:58:52;5.50;;;3.15;;
23628;SDS011;11991;57.150;-2.134;2023-04-08T05:01:19;7.57;;;4.18;;
23628;SDS011;11991;57.150;-2.134;2023-04-08T05:03:46;3.80;;;2.25;;
23628;SDS011;11991;57.150;-2.134;2023-04-08T05:06:14;6.10;;;3.10;;
23628;SDS011;11991;57.150;-2.134;2023-04-08T05:08:41;5.55;;;3.17;;
23628;SDS011;11991;57.150;-2.134;2023-04-08T05:11:09;10.65;;;5.55;;
23628;SDS011;11991;57.150;-2.134;2023-04-08T05:13:36;5.70;;;3.85;;
23628;SDS011;11991;57.150;-2.134;2023-04-08T05:16:04;7.43;;;3.13;;
23628;SDS011;11991;57.150;-2.134;2023-04-08T05:18:31;5.68;;;3.60;;
23628;SDS011;11991;57.150;-2.134;2023-04-08T05:20:58;3.13;;;2.47;;
23628;SDS011;11991;57.150;-2.134;2023-04-08T05:23:26;2.47;;;2.28;;
23628;SDS011;11991;57.150;-2.134;2023-04-08T05:25:53;9.77;;;3.25;;
23628;SDS011;11991;57.150;-2.134;2023-04-08T05:28:20;5.65;;;3.35;;
23628;SDS011;11991;57.150;-2.134;2023-04-08T05:30:48;6.60;;;2.80;;
23628;SDS011;11991;57.150;-2.134;2023-04-08T05:33:17;5.28;;;3.35;;
23628;SDS011;11991;57.150;-2.134;2023-04-08T05:35:44;3.15;;;2.50;;
23628;SDS011;11991;57.150;-2.134;2023-04-08T05:38:12;2.30;;;1.83;;
23628;SDS011;11991;57.150;-2.134;2023-04-08T05:40:39;4.55;;;2.35;;
23628;SDS011;11991;57.150;-2.134;2023-04-08T05:43:06;13.02;;;4.18;;
23628;SDS011;11991;57.150;-2.134;2023-04-08T05:45:34;8.70;;;3.38;;
23628;SDS011;11991;57.150;-2.134;2023-04-08T05:48:01;8.45;;;3.08;;
23628;SDS011;11991;57.150;-2.134;2023-04-08T05:50:28;2.92;;;2.55;;
23628;SDS011;11991;57.150;-2.134;2023-04-08T05:52:56;7.75;;;3.65;;
23628;SDS011;11991;57.150;-2.134;2023-04-08T05:55:23;4.60;;;2.92;;
23628;SDS011;11991;57.150;-2.134;2023-04-08T05:57:50;6.57;;;3.17;;
23628;SDS011;11991;57.150;-2.134;2023-04-08T06:00:17;6.03;;;3.15;;
23628;SDS011;11991;57.150;-2.134;2023-04-08T06:02:45;6.07;;;3.20;;
23628;SDS011;11991;57.150;-2.134;2023-04-08T06:05:13;4.20;;;2.95;;
23628;SDS011;11991;57.150;-2.134;2023-04-08T06:07:40;5.93;;;2.70;;
23628;SDS011;11991;57.150;-2.134;2023-04-08T06:10:07;4.82;;;2.88;;
23628;SDS011;11991;57.150;-2.134;2023-04-08T06:12:35;11.30;;;4.03;;
23628;SDS011;11991;57.150;-2.134;2023-04-08T06:15:04;3.72;;;2.35;;
23628;SDS011;11991;57.150;-2.134;2023-04-08T06:17:36;7.40;;;2.85;;
23628;SDS011;11991;57.150;-2.134;2023-04-08T06:20:05;4.70;;;3.15;;
23628;SDS011;11991;57.150;-2.134;2023-04-08T06:22:32;8.18;;;5.18;;
23628;SDS011;11991;57.150;-2.134;2023-04-08T06:24:59;10.23;;;4.50;;
23628;SDS011;11991;57.150;-2.134;2023-04-08T06:27:26;9.88;;;5.00;;
23628;SDS011;11991;57.150;-2.134;2023-04-08T06:29:54;8.85;;;4.03;;
23628;SDS011;11991;57.150;-2.134;2023-04-08T06:32:21;8.23;;;4.13;;
23628;SDS011;11991;57.150;-2.134;2023-04-08T06:34:49;9.65;;;4.55;;
23628;SDS011;11991;57.150;-2.134;2023-04-08T06:37:16;8.52;;;4.65;;
23628;SDS011;11991;57.150;-2.134;2023-04-08T06:39:43;8.25;;;4.15;;
23628;SDS011;11991;57.150;-2.134;2023-04-08T06:42:10;8.88;;;4.97;;
23628;SDS011;11991;57.150;-2.134;2023-04-08T06:45:04;13.77;;;5.53;;
23628;SDS011;11991;57.150;-2.134;2023-04-08T06:47:31;8.45;;;4.63;;
23628;SDS011;11991;57.150;-2.134;2023-04-08T06:49:59;6.70;;;3.65;;
23628;SDS011;11991;57.150;-2.134;2023-04-08T06:52:26;7.35;;;3.80;;
23628;SDS011;11991;57.150;-2.134;2023-04-08T06:54:53;8.52;;;3.38;;
23628;SDS011;11991;57.150;-2.134;2023-04-08T06:57:20;8.65;;;3.95;;
23628;SDS011;11991;57.150;-2.134;2023-04-08T06:59:48;5.68;;;2.83;;
23628;SDS011;11991;57.150;-2.134;2023-04-08T07:02:15;7.07;;;3.53;;
23628;SDS011;11991;57.150;-2.134;2023-04-08T07:04:42;4.63;;;2.55;;
23628;SDS011;11991;57.150;-2.134;2023-04-08T07:07:12;5.95;;;2.78;;
23628;SDS011;11991;57.150;-2.134;2023-04-08T07:09:39;2.25;;;1.73;;
23628;SDS011;11991;57.150;-2.134;2023-04-08T07:12:11;4.60;;;2.28;;
23628;SDS011;11991;57.150;-2.134;2023-04-08T07:14:38;3.92;;;2.13;;
23628;SDS011;11991;57.150;-2.134;2023-04-08T07:17:06;5.60;;;2.83;;
23628;SDS011;11991;57.150;-2.134;2023-04-08T07:19:34;5.38;;;2.85;;
23628;SDS011;11991;57.150;-2.134;2023-04-08T07:22:01;4.53;;;1.98;;
23628;SDS011;11991;57.150;-2.134;2023-04-08T07:24:28;5.22;;;2.72;;
23628;SDS011;11991;57.150;-2.134;2023-04-08T07:26:55;8.05;;;3.17;;
23628;SDS011;11991;57.150;-2.134;2023-04-08T07:29:22;6.97;;;2.97;;
23628;SDS011;11991;57.150;-2.134;2023-04-08T07:31:50;5.72;;;2.40;;
23628;SDS011;11991;57.150;-2.134;2023-04-08T07:34:17;7.50;;;2.58;;
23628;SDS011;11991;57.150;-2.134;2023-04-08T07:36:44;7.40;;;3.05;;
23628;SDS011;11991;57.150;-2.134;2023-04-08T07:39:11;6.22;;;3.10;;
23628;SDS011;11991;57.150;-2.134;2023-04-08T07:41:38;7.70;;;2.45;;
23628;SDS011;11991;57.150;-2.134;2023-04-08T07:44:06;5.28;;;2.50;;
23628;SDS011;11991;57.150;-2.134;2023-04-08T07:46:36;6.07;;;2.30;;
23628;SDS011;11991;57.150;-2.134;2023-04-08T07:49:04;7.95;;;3.15;;
23628;SDS011;11991;57.150;-2.134;2023-04-08T07:51:32;6.07;;;2.20;;
23628;SDS011;11991;57.150;-2.134;2023-04-08T07:53:59;6.50;;;2.30;;
23628;SDS011;11991;57.150;-2.134;2023-04-08T07:56:26;8.70;;;3.22;;
23628;SDS011;11991;57.150;-2.134;2023-04-08T07:58:53;3.63;;;1.92;;
23628;SDS011;11991;57.150;-2.134;2023-04-08T08:01:21;7.15;;;2.45;;
23628;SDS011;11991;57.150;-2.134;2023-04-08T08:03:49;5.97;;;2.72;;
23628;SDS011;11991;57.150;-2.134;2023-04-08T08:06:18;9.35;;;2.95;;
23628;SDS011;11991;57.150;-2.134;2023-04-08T08:08:46;10.55;;;3.70;;
23628;SDS011;11991;57.150;-2.134;2023-04-08T08:11:13;6.57;;;2.70;;
23628;SDS011;11991;57.150;-2.134;2023-04-08T08:13:40;6.78;;;3.00;;
23628;SDS011;11991;57.150;-2.134;2023-04-08T08:16:08;5.38;;;2.10;;
23628;SDS011;11991;57.150;-2.134;2023-04-08T08:18:37;4.90;;;2.20;;
23628;SDS011;11991;57.150;-2.134;2023-04-08T08:21:06;3.05;;;1.88;;
23628;SDS011;11991;57.150;-2.134;2023-04-08T08:23:33;9.70;;;3.90;;
23628;SDS011;11991;57.150;-2.134;2023-04-08T08:26:01;6.00;;;2.28;;
23628;SDS011;11991;57.150;-2.134;2023-04-08T08:28:30;3.60;;;1.70;;
23628;SDS011;11991;57.150;-2.134;2023-04-08T08:30:58;6.90;;;2.42;;
23628;SDS011;11991;57.150;-2.134;2023-04-08T08:33:25;4.53;;;2.22;;
23628;SDS011;11991;57.150;-2.134;2023-04-08T08:35:52;7.10;;;3.00;;
23628;SDS011;11991;57.150;-2.134;2023-04-08T08:38:19;5.05;;;2.08;;
23628;SDS011;11991;57.150;-2.134;2023-04-08T08:40:51;5.55;;;2.55;;
23628;SDS011;11991;57.150;-2.134;2023-04-08T08:43:23;10.40;;;3.15;;
23628;SDS011;11991;57.150;-2.134;2023-04-08T08:45:51;9.85;;;2.47;;
23628;SDS011;11991;57.150;-2.134;2023-04-08T08:48:19;3.50;;;2.13;;
23628;SDS011;11991;57.150;-2.134;2023-04-08T08:50:46;3.38;;;1.90;;
23628;SDS011;11991;57.150;-2.134;2023-04-08T08:53:13;4.45;;;1.95;;
23628;SDS011;11991;57.150;-2.134;2023-04-08T08:55:41;4.50;;;1.63;;
23628;SDS011;11991;57.150;-2.134;2023-04-08T08:58:11;6.60;;;2.45;;
23628;SDS011;11991;57.150;-2.134;2023-04-08T09:00:39;9.70;;;2.55;;
23628;SDS011;11991;57.150;-2.134;2023-04-08T09:03:14;4.20;;;2.22;;
23628;SDS011;11991;57.150;-2.134;2023-04-08T09:05:56;3.25;;;1.67;;
23628;SDS011;11991;57.150;-2.134;2023-04-08T09:08:28;4.15;;;1.58;;
23628;SDS011;11991;57.150;-2.134;2023-04-08T09:11:10;4.45;;;1.73;;
23628;SDS011;11991;57.150;-2.134;2023-04-08T09:13:38;7.75;;;2.90;;
23628;SDS011;11991;57.150;-2.134;2023-04-08T09:16:06;8.90;;;2.45;;
23628;SDS011;11991;57.150;-2.134;2023-04-08T09:18:35;5.88;;;2.17;;
23628;SDS011;11991;57.150;-2.134;2023-04-08T09:21:04;3.45;;;1.75;;
23628;SDS011;11991;57.150;-2.134;2023-04-08T09:26:22;2.90;;;1.38;;
23628;SDS011;11991;57.150;-2.134;2023-04-08T09:29:24;9.55;;;2.88;;
23628;SDS011;11991;57.150;-2.134;2023-04-08T09:31:55;3.55;;;1.50;;
23628;SDS011;11991;57.150;-2.134;2023-04-08T09:34:25;5.88;;;2.03;;
23628;SDS011;11991;57.150;-2.134;2023-04-08T09:36:54;8.18;;;2.65;;
23628;SDS011;11991;57.150;-2.134;2023-04-08T09:39:22;14.05;;;3.67;;
23628;SDS011;11991;57.150;-2.134;2023-04-08T09:41:50;6.25;;;1.92;;
23628;SDS011;11991;57.150;-2.134;2023-04-08T09:44:19;4.40;;;1.92;;
23628;SDS011;11991;57.150;-2.134;2023-04-08T09:49:45;6.00;;;2.38;;
23628;SDS011;11991;57.150;-2.134;2023-04-08T09:52:20;6.43;;;2.78;;
23628;SDS011;11991;57.150;-2.134;2023-04-08T10:00:09;4.15;;;1.90;;
23628;SDS011;11991;57.150;-2.134;2023-04-08T10:05:18;4.57;;;1.60;;
23628;SDS011;11991;57.150;-2.134;2023-04-08T10:07:52;6.47;;;3.03;;
23628;SDS011;11991;57.150;-2.134;2023-04-08T10:10:21;6.57;;;2.97;;
23628;SDS011;11991;57.150;-2.134;2023-04-08T10:12:50;5.88;;;2.83;;
23628;SDS011;11991;57.150;-2.134;2023-04-08T10:15:20;3.03;;;1.73;;
23628;SDS011;11991;57.150;-2.134;2023-04-08T10:17:49;4.93;;;2.03;;
23628;SDS011;11991;57.150;-2.134;2023-04-08T10:21:01;5.85;;;2.45;;
23628;SDS011;11991;57.150;-2.134;2023-04-08T10:23:11;4.50;;;2.28;;
23628;SDS011;11991;57.150;-2.134;2023-04-08T10:30:44;5.03;;;1.95;;
23628;SDS011;11991;57.150;-2.134;2023-04-08T10:33:14;6.80;;;2.53;;
23628;SDS011;11991;57.150;-2.134;2023-04-08T10:35:47;3.38;;;1.48;;
23628;SDS011;11991;57.150;-2.134;2023-04-08T10:38:15;4.72;;;2.05;;
23628;SDS011;11991;57.150;-2.134;2023-04-08T10:40:43;3.92;;;2.40;;
23628;SDS011;11991;57.150;-2.134;2023-04-08T10:43:11;5.18;;;2.20;;
23628;SDS011;11991;57.150;-2.134;2023-04-08T10:45:40;4.80;;;2.33;;
23628;SDS011;11991;57.150;-2.134;2023-04-08T10:50:52;5.07;;;2.15;;
23628;SDS011;11991;57.150;-2.134;2023-04-08T10:53:27;3.60;;;1.65;;
23628;SDS011;11991;57.150;-2.134;2023-04-08T10:56:02;5.60;;;2.03;;
23628;SDS011;11991;57.150;-2.134;2023-04-08T10:58:30;4.05;;;1.58;;
23628;SDS011;11991;57.150;-2.134;2023-04-08T11:01:02;4.70;;;2.40;;
23628;SDS011;11991;57.150;-2.134;2023-04-08T11:03:31;3.42;;;1.70;;
23628;SDS011;11991;57.150;-2.134;2023-04-08T11:06:00;5.10;;;1.98;;
23628;SDS011;11991;57.150;-2.134;2023-04-08T11:08:29;3.97;;;1.52;;
23628;SDS011;11991;57.150;-2.134;2023-04-08T11:11:00;5.13;;;2.35;;
23628;SDS011;11991;57.150;-2.134;2023-04-08T11:13:27;6.80;;;2.60;;
23628;SDS011;11991;57.150;-2.134;2023-04-08T11:15:55;6.80;;;2.85;;
23628;SDS011;11991;57.150;-2.134;2023-04-08T11:18:26;5.32;;;1.88;;
23628;SDS011;11991;57.150;-2.134;2023-04-08T11:20:54;3.08;;;1.38;;
23628;SDS011;11991;57.150;-2.134;2023-04-08T11:23:24;4.60;;;1.95;;
23628;SDS011;11991;57.150;-2.134;2023-04-08T11:25:52;2.75;;;1.88;;
23628;SDS011;11991;57.150;-2.134;2023-04-08T11:28:19;8.05;;;2.60;;
23628;SDS011;11991;57.150;-2.134;2023-04-08T11:30:47;7.18;;;1.98;;
23628;SDS011;11991;57.150;-2.134;2023-04-08T11:33:15;3.63;;;1.88;;
23628;SDS011;11991;57.150;-2.134;2023-04-08T11:35:42;5.95;;;1.98;;
23628;SDS011;11991;57.150;-2.134;2023-04-08T11:38:13;7.30;;;2.13;;
23628;SDS011;11991;57.150;-2.134;2023-04-08T11:40:40;5.40;;;2.10;;
23628;SDS011;11991;57.150;-2.134;2023-04-08T11:43:21;5.72;;;1.55;;
23628;SDS011;11991;57.150;-2.134;2023-04-08T11:45:49;6.00;;;1.73;;
23628;SDS011;11991;57.150;-2.134;2023-04-08T11:48:16;5.53;;;2.45;;
23628;SDS011;11991;57.150;-2.134;2023-04-08T11:50:43;4.43;;;2.20;;
23628;SDS011;11991;57.150;-2.134;2023-04-08T11:53:20;5.85;;;2.20;;
23628;SDS011;11991;57.150;-2.134;2023-04-08T11:55:51;3.97;;;1.77;;
23628;SDS011;11991;57.150;-2.134;2023-04-08T11:58:18;3.17;;;1.42;;
23628;SDS011;11991;57.150;-2.134;2023-04-08T12:00:45;3.25;;;1.83;;
23628;SDS011;11991;57.150;-2.134;2023-04-08T12:03:12;5.18;;;2.00;;
23628;SDS011;11991;57.150;-2.134;2023-04-08T12:05:40;4.93;;;1.95;;
23628;SDS011;11991;57.150;-2.134;2023-04-08T12:08:08;3.95;;;1.73;;
23628;SDS011;11991;57.150;-2.134;2023-04-08T12:10:35;2.92;;;1.23;;
23628;SDS011;11991;57.150;-2.134;2023-04-08T12:13:02;2.00;;;1.50;;
23628;SDS011;11991;57.150;-2.134;2023-04-08T12:15:29;5.00;;;2.05;;
23628;SDS011;11991;57.150;-2.134;2023-04-08T12:17:56;3.40;;;1.65;;
23628;SDS011;11991;57.150;-2.134;2023-04-08T12:20:23;5.28;;;1.73;;
23628;SDS011;11991;57.150;-2.134;2023-04-08T12:22:50;4.75;;;2.08;;
23628;SDS011;11991;57.150;-2.134;2023-04-08T12:25:19;2.45;;;1.40;;
23628;SDS011;11991;57.150;-2.134;2023-04-08T12:27:47;3.88;;;1.83;;
23628;SDS011;11991;57.150;-2.134;2023-04-08T12:30:14;3.72;;;1.85;;
23628;SDS011;11991;57.150;-2.134;2023-04-08T12:32:42;4.97;;;2.10;;
23628;SDS011;11991;57.150;-2.134;2023-04-08T12:35:11;5.95;;;2.35;;
23628;SDS011;11991;57.150;-2.134;2023-04-08T12:37:38;8.27;;;2.95;;
23628;SDS011;11991;57.150;-2.134;2023-04-08T12:40:06;3.35;;;2.25;;
23628;SDS011;11991;57.150;-2.134;2023-04-08T12:42:34;6.50;;;2.75;;
23628;SDS011;11991;57.150;-2.134;2023-04-08T12:45:01;7.15;;;3.30;;
23628;SDS011;11991;57.150;-2.134;2023-04-08T12:47:29;7.45;;;3.35;;
23628;SDS011;11991;57.150;-2.134;2023-04-08T12:49:56;3.88;;;1.88;;
23628;SDS011;11991;57.150;-2.134;2023-04-08T12:52:23;4.57;;;1.85;;
23628;SDS011;11991;57.150;-2.134;2023-04-08T12:54:50;5.25;;;1.95;;
23628;SDS011;11991;57.150;-2.134;2023-04-08T12:57:18;5.53;;;2.30;;
23628;SDS011;11991;57.150;-2.134;2023-04-08T12:59:45;2.63;;;1.30;;
23628;SDS011;11991;57.150;-2.134;2023-04-08T13:02:13;2.88;;;1.70;;
23628;SDS011;11991;57.150;-2.134;2023-04-08T13:04:40;4.38;;;1.98;;
23628;SDS011;11991;57.150;-2.134;2023-04-08T13:07:07;4.43;;;1.98;;
23628;SDS011;11991;57.150;-2.134;2023-04-08T13:09:34;2.75;;;1.63;;
23628;SDS011;11991;57.150;-2.134;2023-04-08T13:12:01;4.63;;;1.67;;
23628;SDS011;11991;57.150;-2.134;2023-04-08T13:14:29;3.72;;;1.30;;
23628;SDS011;11991;57.150;-2.134;2023-04-08T13:16:56;3.78;;;1.30;;
23628;SDS011;11991;57.150;-2.134;2023-04-08T13:19:26;5.30;;;2.35;;
23628;SDS011;11991;57.150;-2.134;2023-04-08T13:21:53;5.18;;;1.70;;
23628;SDS011;11991;57.150;-2.134;2023-04-08T13:24:20;4.20;;;2.45;;
23628;SDS011;11991;57.150;-2.134;2023-04-08T13:26:47;6.05;;;2.38;;
23628;SDS011;11991;57.150;-2.134;2023-04-08T13:29:14;3.95;;;1.63;;
23628;SDS011;11991;57.150;-2.134;2023-04-08T13:31:42;4.72;;;2.53;;
23628;SDS011;11991;57.150;-2.134;2023-04-08T13:34:09;4.00;;;1.98;;
23628;SDS011;11991;57.150;-2.134;2023-04-08T13:36:37;10.25;;;2.42;;
23628;SDS011;11991;57.150;-2.134;2023-04-08T13:39:04;4.93;;;1.70;;
23628;SDS011;11991;57.150;-2.134;2023-04-08T13:41:31;3.47;;;2.03;;
23628;SDS011;11991;57.150;-2.134;2023-04-08T13:44:00;3.55;;;1.52;;
23628;SDS011;11991;57.150;-2.134;2023-04-08T13:46:27;5.35;;;2.22;;
23628;SDS011;11991;57.150;-2.134;2023-04-08T13:48:54;4.35;;;3.05;;
23628;SDS011;11991;57.150;-2.134;2023-04-08T13:51:21;5.47;;;2.50;;
23628;SDS011;11991;57.150;-2.134;2023-04-08T13:53:48;4.32;;;2.00;;
23628;SDS011;11991;57.150;-2.134;2023-04-08T13:56:16;5.53;;;1.98;;
23628;SDS011;11991;57.150;-2.134;2023-04-08T13:58:43;4.05;;;1.58;;
23628;SDS011;11991;57.150;-2.134;2023-04-08T14:01:20;6.13;;;2.70;;
23628;SDS011;11991;57.150;-2.134;2023-04-08T14:03:47;7.22;;;2.35;;
23628;SDS011;11991;57.150;-2.134;2023-04-08T14:06:15;6.15;;;2.60;;
23628;SDS011;11991;57.150;-2.134;2023-04-08T14:08:42;7.47;;;1.92;;
23628;SDS011;11991;57.150;-2.134;2023-04-08T14:11:09;3.95;;;1.63;;
23628;SDS011;11991;57.150;-2.134;2023-04-08T14:13:37;3.45;;;2.00;;
23628;SDS011;11991;57.150;-2.134;2023-04-08T14:16:04;2.95;;;1.50;;
23628;SDS011;11991;57.150;-2.134;2023-04-08T14:18:31;2.85;;;1.98;;
23628;SDS011;11991;57.150;-2.134;2023-04-08T14:20:58;5.53;;;1.98;;
23628;SDS011;11991;57.150;-2.134;2023-04-08T14:23:25;5.90;;;2.30;;
23628;SDS011;11991;57.150;-2.134;2023-04-08T14:25:53;1.83;;;1.25;;
23628;SDS011;11991;57.150;-2.134;2023-04-08T14:28:20;4.65;;;2.17;;
23628;SDS011;11991;57.150;-2.134;2023-04-08T14:30:47;2.67;;;1.75;;
23628;SDS011;11991;57.150;-2.134;2023-04-08T14:33:14;5.30;;;2.00;;
23628;SDS011;11991;57.150;-2.134;2023-04-08T14:35:41;5.18;;;2.15;;
23628;SDS011;11991;57.150;-2.134;2023-04-08T14:38:09;4.35;;;1.98;;
23628;SDS011;11991;57.150;-2.134;2023-04-08T14:40:36;5.88;;;2.50;;
23628;SDS011;11991;57.150;-2.134;2023-04-08T14:43:03;4.82;;;2.05;;
23628;SDS011;11991;57.150;-2.134;2023-04-08T14:45:30;2.17;;;1.60;;
23628;SDS011;11991;57.150;-2.134;2023-04-08T14:47:58;2.45;;;1.52;;
23628;SDS011;11991;57.150;-2.134;2023-04-08T14:50:26;2.40;;;1.30;;
23628;SDS011;11991;57.150;-2.134;2023-04-08T14:52:53;2.90;;;1.98;;
23628;SDS011;11991;57.150;-2.134;2023-04-08T14:55:20;6.78;;;2.40;;
23628;SDS011;11991;57.150;-2.134;2023-04-08T14:57:48;3.40;;;1.70;;
23628;SDS011;11991;57.150;-2.134;2023-04-08T15:00:15;5.15;;;2.15;;
23628;SDS011;11991;57.150;-2.134;2023-04-08T15:02:42;3.50;;;1.70;;